Time;durP1;ratioP1;P1;durP2;ratioP2;P2;SDS_P1;SDS_P2;PMS_P1;PMS_P2;Temp;Humidity;BMP_temperature;BMP_pressure;BME280_temperature;BME280_humidity;BME280_pressure;Samples;Min_cycle;Max_cycle;Signal;HPM_P1;HPM_P2
2022/05/10 00:01:38;;;;;;;12.13;8.47;;;17.50;67.30;;;;;;5077580;28;20185;-85
2022/05/10 00:04:06;;;;;;;13.65;8.75;;;17.50;67.40;;;;;;5077477;28;20183;-84
2022/05/10 00:06:53;;;;;;;16.45;8.90;;;17.40;68.10;;;;;;5059281;28;20200;-84
2022/05/10 00:09:22;;;;;;;14.82;9.25;;;17.40;68.50;;;;;;5059146;28;20212;-85
2022/05/10 00:11:48;;;;;;;12.50;9.95;;;17.40;68.20;;;;;;5058716;28;20188;-85
2022/05/10 00:14:34;;;;;;;17.67;9.60;;;17.40;68.20;;;;;;5058705;28;20198;-85
2022/05/10 00:17:00;;;;;;;12.65;8.45;;;17.30;68.70;;;;;;5058778;28;20364;-84
2022/05/10 00:19:30;;;;;;;13.13;8.57;;;17.30;68.30;;;;;;5058571;28;20287;-84
2022/05/10 00:21:57;;;;;;;12.50;8.95;;;17.40;66.90;;;;;;5066141;28;20438;-85
2022/05/10 00:24:23;;;;;;;12.13;10.10;;;17.30;67.70;;;;;;5090165;28;20176;-85
2022/05/10 00:26:49;;;;;;;15.15;8.82;;;17.30;68.30;;;;;;5079503;28;20172;-85
2022/05/10 00:29:16;;;;;;;16.23;9.40;;;17.30;67.90;;;;;;5079420;28;20294;-85
2022/05/10 00:31:42;;;;;;;17.27;9.50;;;17.30;68.20;;;;;;5080791;28;20190;-85
2022/05/10 00:34:09;;;;;;;13.52;9.27;;;17.20;68.70;;;;;;5084745;28;20259;-85
2022/05/10 00:36:35;;;;;;;12.00;9.10;;;17.20;69.00;;;;;;5082240;28;20278;-85
2022/05/10 00:39:01;;;;;;;12.33;9.37;;;17.10;68.80;;;;;;5084143;28;20315;-84
2022/05/10 00:41:31;;;;;;;14.38;8.98;;;17.10;68.20;;;;;;5080495;28;20410;-85
2022/05/10 00:44:09;;;;;;;13.60;8.60;;;17.10;68.70;;;;;;5072278;28;20164;-85
2022/05/10 00:46:43;;;;;;;15.00;10.30;;;17.10;68.40;;;;;;5097050;28;20568;-85
2022/05/10 00:49:33;;;;;;;13.57;10.88;;;17.00;69.10;;;;;;5077828;28;20278;-85
2022/05/10 00:52:10;;;;;;;10.57;8.98;;;17.00;69.80;;;;;;5077318;28;20168;-85
2022/05/10 00:54:39;;;;;;;13.63;10.52;;;16.90;69.60;;;;;;5077411;28;20179;-86
2022/05/10 00:57:26;;;;;;;11.10;9.90;;;16.90;68.80;;;;;;5077895;28;20271;-86
2022/05/10 01:00:09;;;;;;;15.73;11.05;;;16.90;69.10;;;;;;5077770;28;20254;-86
2022/05/10 01:02:47;;;;;;;15.30;10.50;;;16.90;69.10;;;;;;5097328;28;20200;-85
2022/05/10 01:05:14;;;;;;;20.95;10.93;;;16.90;69.00;;;;;;5080377;28;20264;-85
2022/05/10 01:07:49;;;;;;;17.00;11.45;;;16.90;69.50;;;;;;5100597;28;20184;-85
2022/05/10 01:10:47;;;;;;;14.68;9.60;;;16.80;69.80;;;;;;5082689;28;20190;-85
2022/05/10 01:13:18;;;;;;;15.07;10.35;;;16.80;69.10;;;;;;5078785;28;20271;-85
2022/05/10 01:15:56;;;;;;;17.65;11.73;;;16.90;68.40;;;;;;5096907;28;20182;-86
2022/05/10 01:18:23;;;;;;;13.15;10.45;;;16.80;68.10;;;;;;5080366;28;20199;-85
2022/05/10 01:20:53;;;;;;;14.27;11.13;;;16.90;67.40;;;;;;5081555;28;20659;-87
2022/05/10 01:23:41;;;;;;;20.05;12.15;;;16.90;68.00;;;;;;5093202;28;20657;-85
2022/05/10 01:26:39;;;;;;;16.30;12.35;;;16.90;68.60;;;;;;5097472;28;20171;-85
2022/05/10 01:29:10;;;;;;;17.50;11.30;;;16.70;68.10;;;;;;5083250;28;20206;-86
2022/05/10 01:31:42;;;;;;;15.05;11.90;;;16.70;69.20;;;;;;5095562;28;20252;-85
2022/05/10 01:34:12;;;;;;;20.17;12.07;;;16.80;68.90;;;;;;5095326;28;20600;-85
2022/05/10 01:36:43;;;;;;;15.77;11.48;;;16.80;68.30;;;;;;5095184;28;20176;-85
2022/05/10 01:39:17;;;;;;;20.17;11.45;;;16.80;68.40;;;;;;5077233;28;20298;-85
2022/05/10 01:42:05;;;;;;;14.65;11.63;;;16.80;68.50;;;;;;5076332;28;20186;-88
2022/05/10 01:44:48;;;;;;;14.90;11.32;;;16.80;68.50;;;;;;5076611;28;20168;-84
2022/05/10 01:47:28;;;;;;;20.92;11.95;;;16.70;68.70;;;;;;5095052;28;20510;-84
2022/05/10 01:49:57;;;;;;;20.30;11.38;;;16.70;69.50;;;;;;5077283;28;20203;-85
2022/05/10 01:52:48;;;;;;;15.38;11.80;;;16.70;69.10;;;;;;5076556;28;20588;-84
2022/05/10 01:55:30;;;;;;;18.52;10.77;;;16.70;70.10;;;;;;5095061;28;20179;-84
2022/05/10 01:58:27;;;;;;;15.93;11.68;;;16.80;68.70;;;;;;5056549;28;20204;-84
2022/05/10 02:01:00;;;;;;;17.55;11.80;;;16.80;67.00;;;;;;5073261;28;20180;-85
2022/05/10 02:03:43;;;;;;;16.20;12.07;;;16.80;66.30;;;;;;5073118;28;20181;-84
2022/05/10 02:06:25;;;;;;;16.75;12.45;;;16.80;66.70;;;;;;5056825;28;20636;-84
2022/05/10 02:09:02;;;;;;;14.85;11.63;;;16.80;66.50;;;;;;5059584;28;20299;-84
2022/05/10 02:11:28;;;;;;;20.15;13.27;;;16.80;65.50;;;;;;5062679;28;20644;-85
2022/05/10 02:14:04;;;;;;;21.30;12.38;;;16.80;66.30;;;;;;5077247;28;20222;-85
2022/05/10 02:16:50;;;;;;;21.77;13.27;;;16.80;65.60;;;;;;5082402;28;20179;-85
2022/05/10 02:19:16;;;;;;;20.13;13.38;;;16.80;66.10;;;;;;5096273;28;20701;-86
2022/05/10 02:21:53;;;;;;;21.67;14.37;;;16.80;65.70;;;;;;5078200;28;20184;-85
2022/05/10 02:24:27;;;;;;;19.42;12.93;;;16.80;66.90;;;;;;5097384;28;20182;-85
2022/05/10 02:27:00;;;;;;;17.80;14.35;;;16.80;66.20;;;;;;5117037;28;20176;-84
2022/05/10 02:29:40;;;;;;;19.17;14.25;;;16.80;66.50;;;;;;5104148;28;20218;-85
2022/05/10 02:35:05;;;;;;;25.10;16.23;;;16.70;69.00;;;;;;5074377;28;20260;-85
2022/05/10 02:37:31;;;;;;;19.92;14.02;;;16.70;68.00;;;;;;5074107;28;20179;-85
2022/05/10 02:39:58;;;;;;;18.02;14.10;;;16.80;67.30;;;;;;5072778;28;20212;-85
2022/05/10 02:42:24;;;;;;;22.92;14.30;;;16.70;67.00;;;;;;5073609;28;20250;-85
2022/05/10 02:44:54;;;;;;;20.42;14.55;;;16.80;67.80;;;;;;5072693;28;20182;-84
2022/05/10 02:47:32;;;;;;;21.80;13.50;;;16.80;67.80;;;;;;5072297;28;20554;-85
2022/05/10 02:49:58;;;;;;;20.20;13.98;;;16.80;68.20;;;;;;5072514;28;20179;-85
2022/05/10 02:52:24;;;;;;;18.17;13.00;;;16.90;66.20;;;;;;5072996;28;20176;-85
2022/05/10 02:54:54;;;;;;;21.02;13.50;;;16.90;66.00;;;;;;5057879;28;20670;-84
2022/05/10 02:57:22;;;;;;;23.00;14.07;;;16.90;65.70;;;;;;5055723;28;20688;-84
2022/05/10 02:59:49;;;;;;;18.98;13.77;;;17.00;65.10;;;;;;5055365;28;20686;-85
2022/05/10 03:02:22;;;;;;;22.35;13.93;;;17.00;65.70;;;;;;5074027;28;20299;-85
2022/05/10 03:04:59;;;;;;;19.15;13.05;;;17.00;67.00;;;;;;5055570;28;20255;-86
2022/05/10 03:07:31;;;;;;;22.05;13.25;;;17.00;66.60;;;;;;5055370;28;20639;-86
2022/05/10 03:09:57;;;;;;;21.23;13.30;;;16.90;66.70;;;;;;5073933;28;20271;-84
2022/05/10 03:12:23;;;;;;;25.30;13.13;;;17.00;66.60;;;;;;5057217;28;20292;-84
2022/05/10 03:14:49;;;;;;;19.77;12.93;;;17.00;66.50;;;;;;5060985;28;20419;-84
2022/05/10 03:17:15;;;;;;;20.05;13.35;;;17.00;64.60;;;;;;5084208;28;20506;-84
2022/05/10 03:19:41;;;;;;;24.60;13.57;;;17.10;63.90;;;;;;5086118;28;20451;-85
2022/05/10 03:22:09;;;;;;;25.15;14.68;;;17.10;64.50;;;;;;5098522;28;20206;-85
2022/05/10 03:24:35;;;;;;;24.17;12.88;;;17.10;63.50;;;;;;5081385;28;20187;-84
2022/05/10 03:27:04;;;;;;;18.92;12.73;;;17.10;63.40;;;;;;5081054;28;20183;-85
2022/05/10 03:29:29;;;;;;;20.23;13.80;;;17.10;63.30;;;;;;5079522;28;20202;-85
2022/05/10 03:31:56;;;;;;;21.40;13.60;;;17.20;63.30;;;;;;5097212;28;20172;-85
2022/05/10 03:37:06;;;;;;;21.45;13.40;;;17.20;63.30;;;;;;5098000;28;20535;-84
2022/05/10 03:39:32;;;;;;;22.67;14.37;;;17.20;62.60;;;;;;5059658;28;20268;-84
2022/05/10 03:41:57;;;;;;;22.17;14.37;;;17.20;65.00;;;;;;5058445;28;20222;-84
2022/05/10 03:44:23;;;;;;;20.30;13.73;;;17.30;63.00;;;;;;5058531;28;20445;-84
2022/05/10 03:46:50;;;;;;;22.70;15.00;;;17.30;62.10;;;;;;5076783;28;20524;-84
2022/05/10 03:49:16;;;;;;;25.45;14.55;;;17.40;61.60;;;;;;5058133;28;20207;-84
2022/05/10 03:51:42;;;;;;;19.15;12.20;;;17.50;60.80;;;;;;5058185;28;20180;-85
2022/05/10 03:54:08;;;;;;;16.40;12.43;;;17.50;60.80;;;;;;5058822;28;20662;-84
2022/05/10 03:56:34;;;;;;;22.87;13.90;;;17.50;60.40;;;;;;5060352;28;20651;-84
2022/05/10 03:59:00;;;;;;;19.13;12.93;;;17.60;60.20;;;;;;5078221;28;20457;-84
2022/05/10 04:01:27;;;;;;;19.45;13.25;;;17.60;60.00;;;;;;5060649;28;20818;-84
2022/05/10 04:03:53;;;;;;;22.38;12.13;;;17.60;60.60;;;;;;5059943;28;20176;-85
2022/05/10 04:06:19;;;;;;;16.07;12.57;;;17.60;60.30;;;;;;5059423;28;20199;-84
2022/05/10 04:08:45;;;;;;;18.60;12.63;;;17.60;60.70;;;;;;5076996;28;20528;-86
2022/05/10 04:11:13;;;;;;;22.85;12.80;;;17.60;60.80;;;;;;5077603;28;20176;-86
2022/05/10 04:13:40;;;;;;;16.45;11.15;;;17.60;60.80;;;;;;5076711;28;20200;-84
2022/05/10 04:16:06;;;;;;;20.52;11.30;;;17.60;61.10;;;;;;5058813;28;20183;-85
2022/05/10 04:18:33;;;;;;;17.40;12.15;;;17.60;60.80;;;;;;5077325;28;20702;-84
2022/05/10 04:20:59;;;;;;;13.55;10.60;;;17.70;60.60;;;;;;5058719;28;20169;-85
2022/05/10 04:23:25;;;;;;;18.10;11.38;;;17.60;60.60;;;;;;5058625;28;20246;-84
2022/05/10 04:25:51;;;;;;;16.70;12.33;;;17.60;60.40;;;;;;5076752;28;20177;-85
2022/05/10 04:28:26;;;;;;;17.33;10.88;;;17.60;60.80;;;;;;5057760;28;20522;-84
2022/05/10 04:30:51;;;;;;;15.95;11.82;;;17.60;60.80;;;;;;5058261;28;20591;-84
2022/05/10 04:33:17;;;;;;;13.70;11.07;;;17.60;61.00;;;;;;5058093;28;20627;-84
2022/05/10 04:35:43;;;;;;;11.10;9.70;;;17.70;60.60;;;;;;5058158;28;20172;-84
2022/05/10 04:38:09;;;;;;;15.20;12.40;;;17.70;60.90;;;;;;5058398;28;20442;-84
2022/05/10 04:43:19;;;;;;;19.20;11.80;;;17.70;60.80;;;;;;5076515;28;20646;-84
2022/05/10 04:45:45;;;;;;;14.07;10.17;;;17.80;60.70;;;;;;5058929;28;20176;-84
2022/05/10 04:48:11;;;;;;;16.83;10.80;;;17.80;60.70;;;;;;5058507;28;20219;-85
2022/05/10 04:50:36;;;;;;;12.20;9.87;;;17.80;60.80;;;;;;5057695;28;20411;-84
2022/05/10 04:53:03;;;;;;;14.33;10.70;;;17.80;60.40;;;;;;5059637;28;20422;-84
2022/05/10 04:55:28;;;;;;;13.10;10.25;;;17.80;60.40;;;;;;5057812;28;20415;-84
2022/05/10 04:57:54;;;;;;;12.20;10.07;;;17.90;60.20;;;;;;5057305;28;20195;-85
2022/05/10 05:00:20;;;;;;;14.80;10.30;;;17.90;60.30;;;;;;5058051;28;20197;-84
2022/05/10 05:02:46;;;;;;;19.95;9.68;;;18.00;60.30;;;;;;5057384;28;20176;-84
2022/05/10 05:05:15;;;;;;;12.47;9.70;;;18.00;60.10;;;;;;5059075;28;20177;-84
2022/05/10 05:07:41;;;;;;;14.98;9.80;;;18.00;60.00;;;;;;5083277;28;20168;-84
2022/05/10 05:10:07;;;;;;;11.77;10.43;;;18.20;59.80;;;;;;5066728;28;20210;-84
2022/05/10 05:12:33;;;;;;;14.50;10.10;;;18.30;59.80;;;;;;5097503;28;20226;-84
2022/05/10 05:15:05;;;;;;;13.37;9.50;;;18.30;59.90;;;;;;5097937;28;20651;-84
2022/05/10 05:17:31;;;;;;;13.13;9.50;;;18.30;59.40;;;;;;5098093;28;20948;-84
2022/05/10 05:19:57;;;;;;;16.73;9.70;;;18.30;59.40;;;;;;5097929;28;20214;-84
2022/05/10 05:22:23;;;;;;;13.77;9.93;;;18.30;59.60;;;;;;5091069;28;20426;-84
2022/05/10 05:24:48;;;;;;;13.13;8.70;;;18.30;59.50;;;;;;5096797;28;20544;-85
2022/05/10 05:27:14;;;;;;;18.53;10.00;;;18.30;59.50;;;;;;5102221;28;20418;-84
2022/05/10 05:29:40;;;;;;;15.67;9.83;;;18.40;59.70;;;;;;5101948;28;20205;-85
2022/05/10 05:32:10;;;;;;;14.63;9.73;;;18.30;59.60;;;;;;5099915;28;20263;-84
2022/05/10 05:34:36;;;;;;;16.45;10.23;;;18.40;59.40;;;;;;5063622;28;20188;-84
2022/05/10 05:39:47;;;;;;;15.48;9.73;;;18.30;59.60;;;;;;5095982;28;20207;-84
2022/05/10 05:42:13;;;;;;;11.07;9.00;;;18.40;59.70;;;;;;5094636;28;20180;-85
2022/05/10 05:44:38;;;;;;;14.80;10.00;;;18.30;59.90;;;;;;5075943;28;20217;-84
2022/05/10 05:47:04;;;;;;;11.37;8.70;;;18.30;59.90;;;;;;5077581;28;20251;-85
2022/05/10 05:49:30;;;;;;;16.73;9.23;;;18.40;60.60;;;;;;5072466;28;20242;-85
2022/05/10 05:51:57;;;;;;;18.17;10.60;;;18.50;59.90;;;;;;5058426;28;20193;-84
2022/05/10 05:54:23;;;;;;;16.45;10.50;;;18.60;59.80;;;;;;5086323;28;20421;-86
2022/05/10 05:56:50;;;;;;;14.50;10.20;;;18.60;59.70;;;;;;5103664;28;20234;-85
2022/05/10 05:59:16;;;;;;;13.23;9.73;;;18.70;59.70;;;;;;5092123;28;20464;-84
2022/05/10 06:01:43;;;;;;;15.43;9.80;;;18.80;59.30;;;;;;5080601;28;20176;-84
2022/05/10 06:04:08;;;;;;;12.55;9.65;;;18.80;59.00;;;;;;5095166;28;20255;-85
2022/05/10 06:06:34;;;;;;;13.03;8.33;;;19.00;58.90;;;;;;5075581;28;20207;-86
2022/05/10 06:09:00;;;;;;;17.20;9.57;;;19.00;58.70;;;;;;5075410;28;20812;-86
2022/05/10 06:11:25;;;;;;;13.50;9.00;;;19.10;58.60;;;;;;5075281;28;20175;-86
2022/05/10 06:13:52;;;;;;;12.37;9.13;;;19.30;58.30;;;;;;5075348;28;20657;-86
2022/05/10 06:16:18;;;;;;;14.18;9.73;;;19.40;58.00;;;;;;5093378;28;20172;-87
2022/05/10 06:18:43;;;;;;;13.93;8.80;;;19.40;58.00;;;;;;5075332;28;20208;-86
2022/05/10 06:21:35;;;;;;;17.10;9.80;;;19.50;57.80;;;;;;5074998;28;20422;-87
2022/05/10 06:24:01;;;;;;;14.32;9.63;;;19.60;57.60;;;;;;5058307;28;20172;-86
2022/05/10 06:26:27;;;;;;;13.93;9.13;;;19.60;57.40;;;;;;5073236;28;20218;-86
2022/05/10 06:28:53;;;;;;;11.83;8.73;;;19.70;57.40;;;;;;5055175;28;20241;-86
2022/05/10 06:31:19;;;;;;;13.70;9.03;;;19.80;57.20;;;;;;5055700;28;20509;-86
2022/05/10 06:33:44;;;;;;;13.65;9.07;;;19.80;57.10;;;;;;5078642;28;20186;-86
2022/05/10 06:36:10;;;;;;;13.70;8.10;;;19.90;57.20;;;;;;5056538;28;20188;-86
2022/05/10 06:38:36;;;;;;;15.47;9.30;;;19.90;57.10;;;;;;5038334;28;20235;-86
2022/05/10 06:41:04;;;;;;;14.57;9.45;;;20.00;56.80;;;;;;5055122;28;20648;-87
2022/05/10 06:43:35;;;;;;;14.18;8.50;;;20.10;56.80;;;;;;5073015;28;20255;-87
2022/05/10 06:46:16;;;;;;;14.60;9.40;;;20.10;56.90;;;;;;5058186;28;20251;-86
2022/05/10 06:48:45;;;;;;;14.50;9.37;;;20.30;56.60;;;;;;5057796;28;20442;-87
2022/05/10 06:51:13;;;;;;;13.30;9.17;;;20.30;56.30;;;;;;5079690;28;20414;-87
2022/05/10 06:53:40;;;;;;;15.07;8.97;;;20.40;56.30;;;;;;5066708;28;20422;-86
2022/05/10 06:56:08;;;;;;;13.93;8.27;;;20.50;56.10;;;;;;5066364;28;20490;-86
2022/05/10 06:58:40;;;;;;;12.10;7.90;;;20.60;55.70;;;;;;5062999;28;20462;-86
2022/05/10 07:01:11;;;;;;;15.33;9.20;;;20.70;56.00;;;;;;5063412;28;20399;-87
2022/05/10 07:03:42;;;;;;;12.67;8.30;;;20.80;55.50;;;;;;5068592;28;20468;-86
2022/05/10 07:06:10;;;;;;;12.77;8.77;;;20.90;55.30;;;;;;5062394;28;20501;-87
2022/05/10 07:08:36;;;;;;;14.60;8.70;;;20.90;55.10;;;;;;5064773;28;20996;-87
2022/05/10 07:11:02;;;;;;;12.53;8.63;;;21.00;55.00;;;;;;5089892;28;20417;-88
2022/05/10 07:13:30;;;;;;;12.03;8.10;;;21.00;54.90;;;;;;5096669;28;20448;-87
2022/05/10 07:15:56;;;;;;;15.33;10.10;;;21.00;55.00;;;;;;5068357;28;20968;-87
2022/05/10 07:18:22;;;;;;;10.67;7.60;;;21.10;55.10;;;;;;5060186;28;20464;-88
2022/05/10 07:20:49;;;;;;;11.60;8.30;;;21.20;54.90;;;;;;5060798;28;20414;-87
2022/05/10 07:23:20;;;;;;;11.70;7.73;;;21.20;54.60;;;;;;5081753;28;20470;-87
2022/05/10 07:25:46;;;;;;;11.70;7.87;;;21.30;54.30;;;;;;5065000;28;20403;-87
2022/05/10 07:28:11;;;;;;;13.20;8.33;;;21.30;53.90;;;;;;5081227;28;20437;-88
2022/05/10 07:30:37;;;;;;;16.33;8.10;;;21.40;53.70;;;;;;5082466;28;20336;-87
2022/05/10 07:33:04;;;;;;;10.57;7.63;;;21.50;53.60;;;;;;5104327;28;20179;-88
2022/05/10 07:38:16;;;;;;;12.27;9.27;;;21.50;53.50;;;;;;5099819;28;20821;-88
2022/05/10 07:40:44;;;;;;;9.60;7.07;;;21.60;53.10;;;;;;5099273;28;20511;-87
2022/05/10 07:43:12;;;;;;;16.20;7.00;;;21.60;52.90;;;;;;5080266;28;20413;-88
2022/05/10 07:45:39;;;;;;;10.87;6.30;;;21.80;52.60;;;;;;5081531;28;20414;-87
2022/05/10 07:48:06;;;;;;;10.63;6.67;;;21.80;53.80;;;;;;5080733;28;20521;-87
2022/05/10 07:50:32;;;;;;;9.30;6.80;;;21.80;52.90;;;;;;5079424;28;20444;-86
2022/05/10 07:53:00;;;;;;;14.10;7.00;;;22.00;52.20;;;;;;5078055;28;20448;-87
2022/05/10 07:55:26;;;;;;;12.57;6.50;;;22.10;52.30;;;;;;5078387;28;20417;-87
2022/05/10 07:57:52;;;;;;;10.37;6.30;;;22.30;51.00;;;;;;5075819;28;20790;-87
2022/05/10 08:00:17;;;;;;;8.53;5.50;;;22.30;51.90;;;;;;5060217;28;20461;-87
2022/05/10 08:02:44;;;;;;;8.67;6.63;;;22.30;52.40;;;;;;5078107;28;20172;-87
2022/05/10 08:05:12;;;;;;;11.33;6.37;;;22.40;51.20;;;;;;5062363;28;20564;-87
2022/05/10 08:07:38;;;;;;;7.80;7.03;;;22.70;49.80;;;;;;5077927;28;20406;-87
2022/05/10 08:10:04;;;;;;;9.33;6.20;;;22.90;48.60;;;;;;5059079;28;20449;-87
2022/05/10 08:12:31;;;;;;;11.00;7.07;;;23.00;48.10;;;;;;5058246;28;20230;-87
2022/05/10 08:14:57;;;;;;;10.60;5.53;;;23.10;47.90;;;;;;5058615;28;20890;-87
2022/05/10 08:17:22;;;;;;;8.47;5.83;;;23.20;47.60;;;;;;5058274;28;20430;-87
2022/05/10 08:19:50;;;;;;;8.30;6.40;;;23.30;47.80;;;;;;5059784;28;20494;-88
2022/05/10 08:22:16;;;;;;;8.57;7.30;;;23.40;47.30;;;;;;5075793;28;20413;-87
2022/05/10 08:24:44;;;;;;;8.43;6.87;;;23.40;47.00;;;;;;5088452;28;20420;-87
2022/05/10 08:27:10;;;;;;;14.73;7.80;;;23.50;46.60;;;;;;5104202;28;20562;-88
2022/05/10 08:29:36;;;;;;;12.03;6.70;;;23.30;46.80;;;;;;5101961;28;20475;-87
2022/05/10 08:32:03;;;;;;;11.30;6.80;;;23.40;47.50;;;;;;5119149;28;20274;-87
2022/05/10 08:34:29;;;;;;;9.90;7.70;;;23.20;48.30;;;;;;5100389;28;20425;-88
2022/05/10 08:36:55;;;;;;;17.90;7.97;;;23.40;47.30;;;;;;5082589;28;20480;-88
2022/05/10 08:39:22;;;;;;;13.07;8.10;;;23.30;48.80;;;;;;5099683;28;20237;-88
2022/05/10 08:41:56;;;;;;;15.17;7.37;;;23.60;48.20;;;;;;5083115;28;20421;-87
2022/05/10 08:44:35;;;;;;;10.70;6.60;;;23.90;46.50;;;;;;5099923;28;20405;-88
2022/05/10 08:47:07;;;;;;;10.33;7.40;;;23.90;47.30;;;;;;5101236;28;20397;-88
2022/05/10 08:49:45;;;;;;;9.93;6.90;;;24.10;46.20;;;;;;5098832;28;20532;-88
2022/05/10 08:52:14;;;;;;;11.83;7.80;;;24.10;47.60;;;;;;5098249;28;20458;-87
2022/05/10 08:54:41;;;;;;;11.40;6.00;;;24.20;46.60;;;;;;5099274;28;20416;-88
2022/05/10 08:57:17;;;;;;;9.83;7.33;;;24.20;47.60;;;;;;5119260;28;20409;-87
2022/05/10 08:59:57;;;;;;;12.93;7.50;;;24.20;46.30;;;;;;5097190;28;20493;-87
2022/05/10 09:02:50;;;;;;;10.67;7.33;;;24.20;45.50;;;;;;5097616;28;20409;-87
2022/05/10 09:05:29;;;;;;;10.70;6.83;;;24.10;45.20;;;;;;5097278;28;21111;-87
2022/05/10 09:07:58;;;;;;;11.63;6.40;;;23.90;47.00;;;;;;5097117;28;20437;-88
2022/05/10 09:10:27;;;;;;;7.13;6.43;;;24.00;47.50;;;;;;5099282;28;20413;-87
2022/05/10 09:13:03;;;;;;;8.23;5.40;;;24.20;45.70;;;;;;5076636;28;20504;-87
2022/05/10 09:15:37;;;;;;;9.17;6.20;;;24.20;45.50;;;;;;5077203;28;20397;-88
2022/05/10 09:18:23;;;;;;;6.97;6.27;;;24.30;45.50;;;;;;5076590;28;20491;-88
2022/05/10 09:21:23;;;;;;;11.77;6.80;;;24.30;45.50;;;;;;5077002;28;20429;-88
2022/05/10 09:24:25;;;;;;;6.30;5.03;;;24.20;46.30;;;;;;5097061;28;20421;-87
2022/05/10 09:26:56;;;;;;;7.33;5.50;;;24.20;47.40;;;;;;5099686;28;20420;-88
2022/05/10 09:29:45;;;;;;;13.27;5.60;;;24.30;46.90;;;;;;5079389;28;20521;-89
2022/05/10 09:35:09;;;;;;;7.03;6.00;;;24.80;44.50;;;;;;5098919;28;20392;-87
2022/05/10 09:37:58;;;;;;;13.60;6.40;;;25.20;43.40;;;;;;5086581;28;20410;-88
2022/05/10 09:40:30;;;;;;;9.07;6.30;;;25.30;44.50;;;;;;5092811;28;20451;-88
2022/05/10 09:43:23;;;;;;;10.37;6.53;;;25.30;43.80;;;;;;5093284;28;20475;-88
2022/05/10 09:46:19;;;;;;;17.70;7.40;;;25.40;42.10;;;;;;5103256;28;20427;-88
2022/05/10 09:48:47;;;;;;;11.50;6.43;;;24.90;44.10;;;;;;5091284;28;20433;-87
2022/05/10 09:51:36;;;;;;;7.53;5.40;;;24.70;45.60;;;;;;5098359;28;20940;-87
2022/05/10 09:54:11;;;;;;;13.53;5.77;;;24.60;46.30;;;;;;5096077;28;20938;-87
2022/05/10 09:56:40;;;;;;;7.90;5.67;;;24.70;46.60;;;;;;5080663;28;20500;-88
2022/05/10 09:59:12;;;;;;;7.60;5.40;;;24.60;46.10;;;;;;5077827;28;20524;-87
2022/05/10 10:01:45;;;;;;;7.20;5.77;;;24.60;46.40;;;;;;5095217;28;20413;-87
2022/05/10 10:04:19;;;;;;;7.50;5.40;;;24.70;46.00;;;;;;5075965;28;20489;-87
2022/05/10 10:06:46;;;;;;;12.00;6.50;;;24.60;46.30;;;;;;5075742;28;20449;-88
2022/05/10 10:09:29;;;;;;;15.23;7.20;;;24.60;45.50;;;;;;5094080;28;20487;-88
2022/05/10 10:11:56;;;;;;;8.80;6.20;;;25.00;44.30;;;;;;5075967;28;20406;-88
2022/05/10 10:14:38;;;;;;;14.73;6.73;;;25.10;43.90;;;;;;5094017;28;20413;-87
2022/05/10 10:17:04;;;;;;;12.27;7.47;;;25.30;43.90;;;;;;5076263;28;20993;-88
2022/05/10 10:19:36;;;;;;;12.53;6.53;;;25.40;43.00;;;;;;5076120;28;20508;-88
2022/05/10 10:22:16;;;;;;;7.07;5.67;;;25.40;44.10;;;;;;5094662;28;20644;-87
2022/05/10 10:24:48;;;;;;;9.50;6.20;;;25.70;42.50;;;;;;5076426;28;20441;-87
2022/05/10 10:27:22;;;;;;;10.97;5.73;;;25.60;43.30;;;;;;5092889;28;20892;-88
2022/05/10 10:30:01;;;;;;;16.47;6.30;;;25.80;41.50;;;;;;5092582;28;20611;-87
2022/05/10 10:32:35;;;;;;;21.10;6.60;;;25.90;42.80;;;;;;5092558;28;20424;-88
2022/05/10 10:35:04;;;;;;;10.53;5.57;;;25.80;43.30;;;;;;5093033;28;20466;-88
2022/05/10 10:37:46;;;;;;;8.97;6.63;;;25.50;43.50;;;;;;5092842;28;20933;-89
2022/05/10 10:40:30;;;;;;;10.10;6.20;;;25.90;41.20;;;;;;5093234;28;20476;-88
2022/05/10 10:43:54;;;;;;;8.20;5.97;;;25.90;41.10;;;;;;5093428;28;20409;-88
2022/05/10 10:46:38;;;;;;;17.40;7.00;;;26.00;41.90;;;;;;4996385;28;20444;-88
2022/05/10 10:49:17;;;;;;;13.80;6.90;;;25.70;42.70;;;;;;4998931;28;20452;-88
2022/05/10 10:51:42;;;;;;;24.17;7.73;;;25.50;42.40;;;;;;5058375;28;20943;-88
2022/05/10 10:54:24;;;;;;;10.77;7.13;;;25.40;43.50;;;;;;5094191;28;20409;-88
2022/05/10 10:56:52;;;;;;;9.60;6.73;;;25.70;41.90;;;;;;5076027;28;20176;-88
2022/05/10 10:59:27;;;;;;;14.33;6.83;;;26.00;41.40;;;;;;5076136;28;21187;-88
2022/05/10 11:02:24;;;;;;;8.53;6.83;;;25.80;41.50;;;;;;5076644;28;20419;-88
2022/05/10 11:05:21;;;;;;;12.33;6.80;;;25.90;41.40;;;;;;5080163;28;20456;-88
2022/05/10 11:08:13;;;;;;;12.37;6.87;;;25.70;42.10;;;;;;5086831;28;20432;-89
2022/05/10 11:11:08;;;;;;;13.40;7.13;;;25.70;42.10;;;;;;5077363;28;20439;-88
2022/05/10 11:13:58;;;;;;;12.07;6.33;;;25.90;40.30;;;;;;5061384;28;20511;-88
2022/05/10 11:16:36;;;;;;;8.33;5.93;;;25.90;41.20;;;;;;5076444;28;20417;-88
2022/05/10 11:19:15;;;;;;;14.60;6.30;;;26.10;39.90;;;;;;5094007;28;20470;-89
2022/05/10 11:21:54;;;;;;;14.47;6.90;;;26.30;39.10;;;;;;5075144;28;20414;-89
2022/05/10 11:24:45;;;;;;;35.67;9.33;;;26.30;39.30;;;;;;5096556;28;20454;-88
2022/05/10 11:27:27;;;;;;;8.93;6.10;;;26.40;39.20;;;;;;5115614;28;20429;-88
2022/05/10 11:30:08;;;;;;;9.93;5.40;;;26.30;39.70;;;;;;5076492;28;20494;-88
2022/05/10 11:32:55;;;;;;;8.83;4.90;;;26.20;41.10;;;;;;5078859;28;20448;-88
2022/05/10 11:35:58;;;;;;;8.90;6.70;;;26.40;40.90;;;;;;5095923;28;20769;-88
2022/05/10 11:39:18;;;;;;;9.80;5.60;;;26.40;40.50;;;;;;5078715;28;20567;-88
2022/05/10 11:42:14;;;;;;;10.03;5.53;;;26.40;40.20;;;;;;4978964;28;20521;-89
2022/05/10 11:44:58;;;;;;;16.13;6.10;;;26.60;40.30;;;;;;5079453;28;20406;-87
2022/05/10 11:48:05;;;;;;;18.60;6.50;;;26.70;39.40;;;;;;5082726;28;20401;-87
2022/05/10 11:54:00;;;;;;;11.50;6.73;;;26.50;39.80;;;;;;4996313;28;20454;-87
2022/05/10 11:56:34;;;;;;;11.03;5.90;;;26.90;38.40;;;;;;5052561;28;20423;-87
2022/05/10 11:59:31;;;;;;;9.17;5.53;;;27.00;38.50;;;;;;5071784;28;21060;-87
2022/05/10 12:01:58;;;;;;;9.43;6.80;;;27.00;39.00;;;;;;5097944;28;20396;-87
2022/05/10 12:04:34;;;;;;;7.27;6.10;;;26.80;38.90;;;;;;5081801;28;20459;-87
2022/05/10 12:07:34;;;;;;;9.40;5.60;;;26.70;39.60;;;;;;5079045;28;20437;-88
2022/05/10 12:10:03;;;;;;;11.37;6.13;;;26.60;39.70;;;;;;5080090;28;20471;-87
2022/05/10 12:12:32;;;;;;;26.33;8.87;;;26.80;38.40;;;;;;5080785;28;20432;-87
2022/05/10 12:21:19;;;;;;;13.93;6.10;;;26.70;39.80;;;;;;5114424;28;20551;-87
2022/05/10 12:24:20;;;;;;;11.57;5.17;;;26.50;40.10;;;;;;5080137;28;21001;-87
2022/05/10 12:26:49;;;;;;;17.07;6.27;;;26.50;39.80;;;;;;5080452;28;20417;-88
2022/05/10 12:29:40;;;;;;;15.03;4.90;;;26.50;39.40;;;;;;5088189;28;20448;-88
2022/05/10 12:32:11;;;;;;;12.80;5.63;;;26.30;38.90;;;;;;5106391;28;20413;-87
2022/05/10 12:34:52;;;;;;;20.60;5.90;;;26.20;38.50;;;;;;5097386;28;20497;-87
2022/05/10 12:37:30;;;;;;;13.80;5.13;;;26.30;38.10;;;;;;5077994;28;20892;-87
2022/05/10 12:40:09;;;;;;;13.67;5.00;;;26.20;37.60;;;;;;5077598;28;20466;-87
2022/05/10 12:42:39;;;;;;;15.03;4.80;;;26.10;37.50;;;;;;5096250;28;20416;-87
2022/05/10 12:45:33;;;;;;;9.20;4.97;;;26.00;37.70;;;;;;5078584;28;20398;-87
2022/05/10 12:48:28;;;;;;;12.70;4.10;;;25.80;37.80;;;;;;5075213;28;20442;-87
2022/05/10 12:51:24;;;;;;;16.30;5.50;;;25.90;38.20;;;;;;5079348;28;20827;-87
2022/05/10 12:54:04;;;;;;;6.67;4.57;;;25.90;37.70;;;;;;5078083;28;20453;-87
2022/05/10 12:57:06;;;;;;;10.63;4.23;;;26.10;38.00;;;;;;5061890;28;20456;-87
2022/05/10 12:59:41;;;;;;;12.90;4.73;;;26.20;37.60;;;;;;5058809;28;20493;-87
2022/05/10 13:02:10;;;;;;;10.87;4.30;;;26.30;36.70;;;;;;5056599;28;20426;-87
2022/05/10 13:04:41;;;;;;;5.63;3.93;;;26.30;37.60;;;;;;5059672;28;20444;-87
2022/05/10 13:07:19;;;;;;;7.90;4.53;;;26.30;37.40;;;;;;5095278;28;20398;-87
2022/05/10 13:10:00;;;;;;;7.77;4.00;;;26.10;37.80;;;;;;5077237;28;20457;-86
2022/05/10 13:13:03;;;;;;;6.33;3.80;;;26.00;38.30;;;;;;5095228;28;20930;-88
2022/05/10 13:15:30;;;;;;;3.80;3.50;;;26.10;37.70;;;;;;5025212;28;20719;-87
2022/05/10 13:17:58;;;;;;;5.30;3.17;;;26.10;36.20;;;;;;5076635;28;20442;-87
2022/05/10 13:20:28;;;;;;;6.87;3.90;;;26.40;34.50;;;;;;5077953;28;21073;-87
2022/05/10 13:23:03;;;;;;;10.47;3.90;;;26.50;34.90;;;;;;5080130;28;20452;-87
2022/05/10 13:25:40;;;;;;;4.90;3.20;;;26.30;34.90;;;;;;5096223;28;20405;-87
2022/05/10 13:28:18;;;;;;;6.67;3.50;;;26.20;35.30;;;;;;5076712;28;20501;-87
2022/05/10 13:30:53;;;;;;;5.20;3.50;;;26.30;34.20;;;;;;5094820;28;20493;-87
2022/05/10 13:33:29;;;;;;;4.40;3.27;;;26.50;32.70;;;;;;5076286;28;20773;-87